Time;durP1;ratioP1;P1;durP2;ratioP2;P2;SDS_P1;SDS_P2;PMS_P1;PMS_P2;Temp;Humidity;BMP_temperature;BMP_pressure;BME280_temperature;BME280_humidity;BME280_pressure;Samples;Min_cycle;Max_cycle;Signal;HPM_P1;HPM_P2
2023/01/11 00:00:26;;;;;;;0.95;0.80;;;8.20;99.90;;;-144.05;73.64;125687.94;5037553;28;20044;-80
2023/01/11 00:03:03;;;;;;;2.00;0.82;;;8.30;99.90;;;-144.05;73.28;125687.94;5037541;28;20034;-79
2023/01/11 00:05:29;;;;;;;1.23;0.47;;;8.30;99.90;;;-144.05;73.40;125687.94;5038085;28;20048;-79
2023/01/11 00:07:55;;;;;;;0.63;0.40;;;8.30;99.90;;;-144.05;73.40;125687.94;5036989;28;20022;-80
2023/01/11 00:10:22;;;;;;;1.73;0.73;;;8.40;99.90;;;-144.05;73.18;125687.94;5036070;28;20040;-80
2023/01/11 00:12:48;;;;;;;1.83;0.55;;;8.30;99.90;;;-144.05;73.08;125687.94;5036687;28;20026;-79
2023/01/11 00:15:15;;;;;;;1.88;0.50;;;8.40;99.90;;;-144.05;72.78;125687.94;5036834;28;20040;-80
2023/01/11 00:17:41;;;;;;;0.63;0.40;;;8.30;99.90;;;-144.05;72.93;125687.94;5037196;28;20029;-78
2023/01/11 00:20:09;;;;;;;1.35;0.40;;;8.40;99.90;;;-144.05;72.70;125687.94;5036321;28;20052;-80
2023/01/11 00:22:36;;;;;;;1.00;0.50;;;8.40;99.90;;;-144.05;72.96;125687.94;5036954;28;20040;-79
2023/01/11 00:25:03;;;;;;;0.93;0.50;;;8.30;99.90;;;-144.05;72.58;125687.94;5037192;28;20038;-80
2023/01/11 00:27:29;;;;;;;0.65;0.50;;;8.40;99.90;;;-144.05;72.61;125687.94;5052236;28;20056;-80
2023/01/11 00:29:55;;;;;;;1.60;0.38;;;8.40;99.90;;;-144.05;72.18;125687.94;5052240;28;20365;-81
2023/01/11 00:32:21;;;;;;;0.93;0.30;;;8.40;99.90;;;-144.05;72.21;125687.94;5037696;28;20048;-79
2023/01/11 00:34:47;;;;;;;0.45;0.30;;;8.40;99.90;;;-144.05;72.71;125687.94;5052412;28;20029;-80
2023/01/11 00:37:12;;;;;;;0.25;0.20;;;8.40;99.90;;;-144.05;72.62;125687.94;5035479;28;20033;-80
2023/01/11 00:39:38;;;;;;;0.80;0.57;;;8.40;99.90;;;-144.05;73.12;125687.94;5035870;28;20029;-80
2023/01/11 00:50:18;;;;;;;1.15;0.47;;;8.40;99.90;;;-144.05;73.72;125687.94;5036144;28;20080;-82
2023/01/11 00:52:44;;;;;;;1.90;0.35;;;8.50;99.90;;;-144.05;73.79;125687.94;5034596;28;20033;-79
2023/01/11 00:55:09;;;;;;;1.35;0.30;;;8.40;99.90;;;-144.05;73.54;125687.94;5036452;28;20524;-78
2023/01/11 00:57:35;;;;;;;0.30;0.30;;;8.50;99.90;;;-144.05;73.80;125687.94;5036095;28;20120;-79
2023/01/11 01:00:02;;;;;;;0.60;0.30;;;8.40;99.90;;;-144.05;73.70;125687.94;5036641;28;20039;-80
2023/01/11 01:02:31;;;;;;;0.30;0.30;;;8.40;99.90;;;-144.05;73.81;125687.94;5034941;28;20033;-81
2023/01/11 01:04:56;;;;;;;0.82;0.35;;;8.50;99.90;;;-144.05;73.59;125687.94;5036487;28;20491;-80
2023/01/11 01:07:22;;;;;;;0.98;0.55;;;8.50;99.90;;;-144.05;73.88;125687.94;5036440;28;20182;-80
2023/01/11 01:09:48;;;;;;;0.40;0.13;;;8.50;99.90;;;-144.05;73.46;125687.94;5034413;28;20060;-80
2023/01/11 01:14:24;;;;;;;0.82;0.32;;;8.50;99.90;;;-144.05;73.67;125687.94;5034307;28;20378;-80
2023/01/11 01:15:00;;;;;;;1.75;0.40;;;8.60;99.90;;;-144.05;73.49;125687.94;5036906;28;20033;-79
2023/01/11 01:17:26;;;;;;;0.30;0.20;;;8.60;99.90;;;-144.05;73.15;125687.94;5035963;28;20036;-79
2023/01/11 01:19:52;;;;;;;0.30;0.25;;;8.70;99.90;;;-144.05;73.13;125687.94;5035223;28;20162;-78
2023/01/11 01:22:18;;;;;;;1.00;0.32;;;8.70;99.90;;;-144.05;73.24;125687.94;5051768;28;20048;-80
2023/01/11 01:24:44;;;;;;;0.20;0.15;;;8.70;99.90;;;-144.05;72.31;125687.94;5035151;28;20025;-78
2023/01/11 01:27:14;;;;;;;0.40;0.20;;;8.80;99.90;;;-144.05;72.12;125687.94;5034746;28;20120;-79
2023/01/11 01:29:40;;;;;;;0.20;0.17;;;8.80;99.90;;;-144.05;72.27;125687.94;5036650;28;20040;-81
2023/01/11 01:32:06;;;;;;;0.45;0.40;;;8.80;99.90;;;-144.05;72.25;125687.94;5036953;28;20499;-81
2023/01/11 01:34:36;;;;;;;0.35;0.20;;;8.90;99.90;;;-144.05;72.51;125687.94;5036796;28;20021;-80
2023/01/11 01:37:06;;;;;;;1.45;0.20;;;8.90;99.90;;;-144.05;72.44;125687.94;5051234;28;20087;-79
2023/01/11 01:39:32;;;;;;;1.40;0.20;;;8.90;99.90;;;-144.05;72.58;125687.94;5033678;28;20030;-78
2023/01/11 01:41:59;;;;;;;0.10;0.10;;;8.90;99.90;;;-144.05;72.08;125687.94;5031814;28;20125;-78
2023/01/11 01:44:57;;;;;;;0.30;0.20;;;8.90;99.90;;;-144.05;72.21;125687.94;5033714;28;20041;-79
2023/01/11 01:47:44;;;;;;;0.70;0.30;;;8.90;99.90;;;-144.05;73.26;125687.94;5048579;28;20060;-79
2023/01/11 01:50:28;;;;;;;0.43;0.30;;;8.90;99.90;;;-144.05;72.70;125687.94;5033438;28;20493;-79
2023/01/11 01:53:10;;;;;;;1.38;0.30;;;9.00;99.90;;;-144.05;72.16;125687.94;5042519;28;20039;-80
2023/01/11 01:55:52;;;;;;;0.82;0.20;;;9.00;99.90;;;-144.05;72.66;125687.94;5036440;28;20404;-80
2023/01/11 01:58:27;;;;;;;0.73;0.30;;;9.00;99.90;;;-144.05;72.68;125687.94;5035482;28;20057;-80
2023/01/11 02:00:53;;;;;;;0.17;0.17;;;9.00;99.90;;;-144.05;72.75;125687.94;5036980;28;20029;-80
2023/01/11 02:03:25;;;;;;;0.50;0.28;;;9.00;99.90;;;-144.05;72.41;125687.94;5049833;28;20045;-79
2023/01/11 02:05:53;;;;;;;0.20;0.20;;;9.10;99.90;;;-144.05;72.58;125687.94;5033660;28;20045;-77
2023/01/11 02:08:36;;;;;;;0.60;0.30;;;9.10;99.90;;;-144.05;72.86;125687.94;5031977;28;20124;-78
2023/01/11 02:11:28;;;;;;;0.50;0.30;;;9.10;99.90;;;-144.05;73.01;125687.94;5033271;28;20017;-79
2023/01/11 02:13:50;;;;;;;0.32;0.30;;;9.20;99.90;;;-144.05;72.96;125687.94;5032983;28;20031;-76
2023/01/11 02:16:16;;;;;;;0.30;0.20;;;9.20;99.90;;;-144.05;72.96;125687.94;5033806;28;20075;-78
2023/01/11 02:18:42;;;;;;;0.55;0.20;;;9.30;99.90;;;-144.05;72.50;125687.94;5032554;28;20034;-78
2023/01/11 02:22:12;;;;;;;0.17;0.15;;;9.40;99.90;;;-144.05;72.36;125687.94;5035200;28;20033;-77
2023/01/11 02:25:20;;;;;;;0.43;0.25;;;9.40;99.90;;;-144.05;72.26;125687.94;4993527;28;20041;-80
2023/01/11 02:28:11;;;;;;;;;;;9.50;99.90;;;-144.05;72.23;125687.94;5035947;28;20029;-79
2023/01/11 02:31:09;;;;;;;1.48;0.22;;;9.50;99.90;;;-144.05;72.51;125687.94;5034576;28;19909;-80
2023/01/11 02:34:12;;;;;;;1.55;0.35;;;9.50;99.90;;;-144.05;72.93;125687.94;5034336;28;20036;-79
2023/01/11 02:37:04;;;;;;;0.40;0.25;;;9.40;99.90;;;-144.05;73.25;125687.94;5036003;28;20028;-80
2023/01/11 02:40:06;;;;;;;0.45;0.28;;;9.40;99.90;;;-144.05;73.55;125687.94;5034412;28;20182;-81
2023/01/11 02:46:19;;;;;;;0.20;0.20;;;9.40;99.90;;;-144.05;74.91;125687.94;5035253;28;20068;-80
2023/01/11 02:49:31;;;;;;;1.27;0.30;;;9.40;99.90;;;-144.05;76.83;125687.94;5033230;28;20084;-81
2023/01/11 02:52:19;;;;;;;0.10;0.10;;;9.30;99.90;;;-144.05;77.06;125687.94;5033555;28;20055;-79
2023/01/11 02:54:57;;;;;;;0.32;0.30;;;9.20;99.90;;;-144.05;77.90;125687.94;5035277;28;20025;-80
2023/01/11 02:57:28;;;;;;;0.40;0.20;;;9.20;99.90;;;-144.05;77.95;125687.94;5033942;28;20037;-78
2023/01/11 02:59:58;;;;;;;0.20;0.20;;;9.10;99.90;;;-144.05;78.21;125687.94;5036817;28;20025;-81
2023/01/11 03:02:24;;;;;;;0.13;0.10;;;9.20;99.90;;;-144.05;77.90;125687.94;5034820;28;20022;-83
2023/01/11 03:04:50;;;;;;;2.10;0.32;;;9.20;99.90;;;-144.05;77.86;125687.94;5036808;28;20025;-80
2023/01/11 03:08:05;;;;;;;0.35;0.20;;;9.20;99.90;;;-144.05;77.50;125687.94;5033863;28;20459;-80
2023/01/11 03:11:03;;;;;;;1.20;0.20;;;9.30;99.90;;;-144.05;78.14;125687.94;5034885;28;20454;-80
2023/01/11 03:14:09;;;;;;;0.43;0.13;;;9.30;99.90;;;-144.05;77.90;125687.94;5034970;28;20022;-80
2023/01/11 03:17:12;;;;;;;0.30;0.25;;;9.30;99.90;;;-144.05;77.88;125687.94;5035954;28;20057;-81
2023/01/11 03:19:58;;;;;;;0.10;0.10;;;9.40;99.90;;;-144.05;78.66;125687.94;5034968;28;20033;-83
2023/01/11 03:22:56;;;;;;;0.20;0.20;;;9.40;99.90;;;-144.05;79.13;125687.94;5035292;28;20029;-81
2023/01/11 03:26:05;;;;;;;0.60;0.30;;;9.30;99.90;;;-144.05;80.03;125687.94;5036861;28;20151;-81
2023/01/11 03:29:10;;;;;;;0.00;0.00;;;9.30;99.90;;;-144.05;80.85;125687.94;5039426;28;20026;-82
2023/01/11 03:31:53;;;;;;;0.32;0.22;;;9.10;99.90;;;-144.05;80.89;125687.94;5039293;28;20166;-80
2023/01/11 03:34:36;;;;;;;0.30;0.20;;;9.10;99.90;;;-144.05;81.63;125687.94;5037989;28;20025;-82
2023/01/11 03:37:19;;;;;;;0.43;0.22;;;9.10;99.90;;;-144.05;81.98;125687.94;5039655;28;20243;-82
2023/01/11 03:40:22;;;;;;;0.15;0.10;;;9.00;99.90;;;-144.05;81.86;125687.94;5040245;28;20069;-82
2023/01/11 03:43:12;;;;;;;0.35;0.10;;;9.00;99.90;;;-144.05;81.75;125687.94;5039662;28;20125;-82
2023/01/11 03:46:12;;;;;;;0.13;0.13;;;9.10;99.90;;;-144.05;82.17;125687.94;5040779;28;20029;-83
2023/01/11 03:48:50;;;;;;;0.20;0.20;;;9.00;99.90;;;-144.05;82.71;125687.94;5040630;28;20028;-81
2023/01/11 03:51:26;;;;;;;1.42;0.10;;;9.10;99.90;;;-144.05;82.98;125687.94;5038607;28;20034;-80
2023/01/11 03:54:00;;;;;;;0.10;0.10;;;9.10;99.90;;;-144.05;83.21;125687.94;5041191;28;20096;-80
2023/01/11 03:56:48;;;;;;;0.17;0.15;;;9.10;99.90;;;-144.05;83.21;125687.94;5043197;28;20075;-80
2023/01/11 03:59:14;;;;;;;0.03;0.00;;;9.10;99.90;;;-144.05;83.42;125687.94;5042598;28;20037;-81
2023/01/11 04:01:40;;;;;;;1.55;0.10;;;9.10;99.90;;;-144.05;83.76;125687.94;5039386;28;20109;-79
2023/01/11 04:04:05;;;;;;;0.20;0.10;;;9.10;99.90;;;-144.05;83.99;125687.94;5038393;28;20034;-82
2023/01/11 04:06:36;;;;;;;0.08;0.08;;;9.10;99.90;;;-144.05;83.67;125687.94;5044957;28;20033;-81
2023/01/11 04:09:04;;;;;;;0.40;0.10;;;9.10;99.90;;;-144.05;84.27;125687.94;5042683;28;20120;-84
2023/01/11 04:11:30;;;;;;;1.10;0.17;;;9.10;99.90;;;-144.05;84.60;125687.94;5040296;28;20032;-83
2023/01/11 04:13:55;;;;;;;0.20;0.10;;;9.10;99.90;;;-144.05;84.71;125687.94;5042054;28;20113;-82
2023/01/11 04:16:21;;;;;;;0.10;0.10;;;9.10;99.90;;;-144.05;84.67;125687.94;5041941;28;20508;-81
2023/01/11 04:18:47;;;;;;;0.43;0.10;;;9.10;99.90;;;-144.05;85.11;125687.94;5039470;28;20485;-81
2023/01/11 04:21:13;;;;;;;0.20;0.20;;;9.20;99.90;;;-144.05;85.17;125687.94;5038238;28;20056;-80
2023/01/11 04:23:39;;;;;;;0.00;0.00;;;9.20;99.90;;;-144.05;85.59;125687.94;5040531;28;20453;-82
2023/01/11 04:26:05;;;;;;;0.10;0.05;;;9.20;99.90;;;-144.05;85.27;125687.94;5038350;28;20203;-81
2023/01/11 04:28:33;;;;;;;0.43;0.20;;;9.20;99.90;;;-144.05;85.64;125687.94;5038392;28;20026;-80
2023/01/11 04:30:58;;;;;;;1.25;0.20;;;9.20;99.90;;;-144.05;85.27;125687.94;5039888;28;20385;-80
2023/01/11 04:33:24;;;;;;;0.32;0.17;;;9.20;99.90;;;-144.05;85.61;125687.94;5037617;28;20037;-81
2023/01/11 04:35:50;;;;;;;0.10;0.10;;;9.20;99.90;;;-144.05;85.56;125687.94;5038594;28;20026;-82
2023/01/11 04:38:17;;;;;;;0.10;0.10;;;9.20;99.90;;;-144.05;85.48;125687.94;5037442;28;20057;-83
2023/01/11 04:40:43;;;;;;;0.38;0.20;;;9.30;99.90;;;-144.05;85.04;125687.94;5037080;28;20030;-81
2023/01/11 04:43:09;;;;;;;1.17;0.13;;;9.30;99.90;;;-144.05;85.21;125687.94;5037431;28;20547;-82
2023/01/11 04:45:35;;;;;;;0.10;0.00;;;9.30;99.90;;;-144.05;85.11;125687.94;5042684;28;20131;-81
2023/01/11 04:48:01;;;;;;;0.20;0.10;;;9.30;99.90;;;-144.05;84.83;125687.94;5037814;28;20124;-79
2023/01/11 04:50:27;;;;;;;0.60;0.30;;;9.30;99.90;;;-144.05;85.08;125687.94;5038281;28;20116;-80
2023/01/11 04:52:53;;;;;;;1.35;0.15;;;9.30;99.90;;;-144.05;85.23;125687.94;5038138;28;20040;-81
2023/01/11 04:55:20;;;;;;;0.15;0.00;;;9.40;99.90;;;-144.05;85.61;125687.94;5038142;28;20025;-83
2023/01/11 04:57:46;;;;;;;1.35;0.82;;;9.30;99.90;;;-144.05;85.07;125687.94;5036887;28;20029;-81
2023/01/11 05:00:14;;;;;;;0.80;0.10;;;9.30;99.90;;;-144.05;85.94;125687.94;5039661;28;20025;-80
2023/01/11 05:02:41;;;;;;;0.20;0.20;;;9.30;99.90;;;-144.05;85.49;125687.94;5036237;28;20025;-80
2023/01/11 05:05:10;;;;;;;0.80;0.20;;;9.30;99.90;;;-144.05;85.19;125687.94;5038399;28;20105;-82
2023/01/11 05:07:37;;;;;;;0.32;0.20;;;9.40;99.90;;;-144.05;84.51;125687.94;5038697;28;20570;-80
2023/01/11 05:10:04;;;;;;;0.10;0.10;;;9.40;99.90;;;-144.05;85.54;125687.94;5037587;28;20030;-83
2023/01/11 05:12:30;;;;;;;1.27;0.10;;;9.40;99.90;;;-144.05;85.47;125687.94;5037745;28;20097;-83
2023/01/11 05:14:56;;;;;;;0.95;0.10;;;9.40;99.90;;;-144.05;85.83;125687.94;5037035;28;20084;-83
2023/01/11 05:17:21;;;;;;;0.10;0.10;;;9.40;99.90;;;-144.05;85.97;125687.94;5037799;28;20049;-81
2023/01/11 05:19:47;;;;;;;0.20;0.10;;;9.50;99.90;;;-144.05;85.80;125687.94;5036451;28;20055;-81
2023/01/11 05:22:13;;;;;;;1.05;0.20;;;9.50;99.90;;;-144.05;86.02;125687.94;5038480;28;20119;-79
2023/01/11 05:24:39;;;;;;;0.15;0.15;;;9.50;99.90;;;-144.05;86.35;125687.94;5036515;28;20503;-80
2023/01/11 05:27:05;;;;;;;0.95;0.15;;;9.50;99.90;;;-144.05;86.49;125687.94;5037783;28;20052;-83
2023/01/11 05:29:30;;;;;;;0.30;0.20;;;9.50;99.90;;;-144.05;86.41;125687.94;5037389;28;20390;-81
2023/01/11 05:31:56;;;;;;;0.10;0.10;;;9.50;99.90;;;-144.05;86.79;125687.94;5036949;28;20389;-81
2023/01/11 05:34:22;;;;;;;0.47;0.30;;;9.60;99.90;;;-144.05;86.84;125687.94;5036541;28;20029;-80
2023/01/11 05:36:48;;;;;;;1.17;0.25;;;9.50;99.90;;;-144.05;86.44;125687.94;5036179;28;20057;-81
2023/01/11 05:39:14;;;;;;;0.30;0.22;;;9.60;99.90;;;-144.05;86.69;125687.94;5034572;28;20036;-82
2023/01/11 05:41:40;;;;;;;0.50;0.10;;;9.50;99.90;;;-144.05;86.51;125687.94;5036493;28;20094;-80
2023/01/11 05:46:56;;;;;;;0.63;0.10;;;9.60;99.90;;;-144.05;87.19;125687.94;5037061;28;20056;-80
2023/01/11 05:49:22;;;;;;;0.55;0.38;;;9.60;99.90;;;-144.05;87.29;125687.94;5036046;28;20027;-79
2023/01/11 05:51:47;;;;;;;0.10;0.10;;;9.60;99.90;;;-144.05;87.05;125687.94;5036793;28;20053;-78
2023/01/11 05:54:15;;;;;;;0.22;0.22;;;9.60;99.90;;;-144.05;86.87;125687.94;5036184;28;20342;-79
2023/01/11 05:56:41;;;;;;;0.90;0.25;;;9.60;99.90;;;-144.05;86.97;125687.94;5035988;28;20033;-80
2023/01/11 05:59:07;;;;;;;1.52;0.30;;;9.70;99.90;;;-144.05;87.04;125687.94;5051670;28;20042;-81
2023/01/11 06:01:34;;;;;;;1.92;0.65;;;9.70;99.90;;;-144.05;86.62;125687.94;5036368;28;20033;-82
2023/01/11 06:04:00;;;;;;;0.38;0.38;;;9.70;99.90;;;-144.05;87.04;125687.94;5051790;28;20034;-81
2023/01/11 06:06:26;;;;;;;2.38;0.20;;;9.70;99.90;;;-144.05;86.93;125687.94;5034692;28;20370;-78
2023/01/11 06:08:52;;;;;;;1.35;0.17;;;9.70;99.90;;;-144.05;87.05;125687.94;5036286;28;20040;-80
2023/01/11 06:11:18;;;;;;;2.40;0.30;;;9.70;99.90;;;-144.05;87.14;125687.94;5035982;28;20060;-81
2023/01/11 06:13:44;;;;;;;0.55;0.20;;;9.70;99.90;;;-144.05;87.46;125687.94;5036678;28;20132;-82
2023/01/11 06:16:18;;;;;;;0.77;0.20;;;9.70;99.90;;;-144.05;86.56;125687.94;5038139;28;20030;-82
2023/01/11 06:18:51;;;;;;;0.50;0.20;;;9.70;99.90;;;-144.05;87.47;125687.94;5037479;28;20033;-82
2023/01/11 06:21:19;;;;;;;0.70;0.22;;;9.80;99.90;;;-144.05;87.50;125687.94;5035878;28;20030;-80
2023/01/11 06:23:52;;;;;;;1.70;0.20;;;9.70;99.90;;;-144.05;86.75;125687.94;5036641;28;20036;-82
2023/01/11 06:26:21;;;;;;;0.40;0.30;;;9.80;99.90;;;-144.05;87.13;125687.94;5035450;28;20029;-81
2023/01/11 06:28:48;;;;;;;0.35;0.35;;;9.80;99.90;;;-144.05;87.27;125687.94;5035730;28;20052;-82
2023/01/11 06:31:15;;;;;;;0.38;0.30;;;9.80;99.90;;;-144.05;87.63;125687.94;5035925;28;20121;-83
2023/01/11 06:33:41;;;;;;;0.50;0.30;;;9.80;99.90;;;-144.05;87.53;125687.94;5036156;28;20037;-80
2023/01/11 06:36:11;;;;;;;1.02;0.32;;;9.80;99.90;;;-144.05;87.49;125687.94;5035958;28;20113;-80
2023/01/11 06:38:38;;;;;;;1.05;0.32;;;9.90;99.90;;;-144.05;87.45;125687.94;5036188;28;20025;-80
2023/01/11 06:41:07;;;;;;;0.35;0.30;;;9.90;99.90;;;-144.05;87.52;125687.94;5036049;28;20030;-82
2023/01/11 06:43:35;;;;;;;0.47;0.30;;;9.90;99.90;;;-144.05;88.00;125687.94;5035731;28;20342;-82
2023/01/11 06:46:01;;;;;;;0.82;0.30;;;9.90;99.90;;;-144.05;87.97;125687.94;5035335;28;20036;-79
2023/01/11 06:48:27;;;;;;;1.42;0.30;;;9.90;99.90;;;-144.05;88.30;125687.94;5034950;28;20039;-83
2023/01/11 06:50:58;;;;;;;1.55;0.47;;;9.90;99.90;;;-144.05;87.43;125687.94;5034067;28;20026;-81
2023/01/11 06:53:26;;;;;;;0.70;0.40;;;9.90;99.90;;;-144.05;87.95;125687.94;5036013;28;20033;-80
2023/01/11 06:55:56;;;;;;;0.65;0.30;;;9.90;99.90;;;-144.05;88.05;125687.94;5034997;28;20083;-79
2023/01/11 06:58:24;;;;;;;1.30;0.52;;;10.00;99.90;;;-144.05;88.79;125687.94;5034132;28;20030;-80
2023/01/11 07:00:56;;;;;;;0.80;0.32;;;10.10;99.90;;;-144.05;89.16;125687.94;5034740;28;20025;-81
2023/01/11 07:03:24;;;;;;;1.15;0.40;;;10.10;99.90;;;-144.05;88.65;125687.94;5033839;28;20131;-79
2023/01/11 07:05:55;;;;;;;0.43;0.40;;;10.10;99.90;;;-144.05;87.95;125687.94;5034704;28;20036;-81
2023/01/11 07:08:22;;;;;;;0.30;0.30;;;10.20;99.90;;;-144.05;87.84;125687.94;5033554;28;20094;-81
2023/01/11 07:10:48;;;;;;;0.52;0.40;;;10.20;99.90;;;-144.05;88.27;125687.94;5035205;28;20025;-80
2023/01/11 07:13:16;;;;;;;0.47;0.40;;;10.20;99.90;;;-144.05;87.72;125687.94;5035452;28;20029;-82
2023/01/11 07:15:47;;;;;;;0.82;0.50;;;10.20;99.90;;;-144.05;87.14;125687.94;5034741;28;20049;-82
2023/01/11 07:18:13;;;;;;;1.10;0.68;;;10.20;99.90;;;-144.05;87.82;125687.94;5035189;28;20037;-81
2023/01/11 07:20:40;;;;;;;0.43;0.35;;;10.20;99.90;;;-144.05;87.70;125687.94;5036131;28;20032;-82
2023/01/11 07:23:09;;;;;;;1.63;0.55;;;10.20;99.90;;;-144.05;88.13;125687.94;5033801;28;20036;-82
2023/01/11 07:25:36;;;;;;;3.30;0.60;;;10.20;99.90;;;-144.05;88.54;125687.94;5034004;28;20029;-82
2023/01/11 07:28:07;;;;;;;1.52;0.50;;;10.20;99.90;;;-144.05;88.58;125687.94;5034556;28;20094;-83
2023/01/11 07:30:37;;;;;;;1.25;0.65;;;10.20;99.90;;;-144.05;88.71;125687.94;5036507;28;20036;-81
2023/01/11 07:33:05;;;;;;;0.80;0.68;;;10.30;99.90;;;-144.05;88.71;125687.94;5038649;28;20029;-81
2023/01/11 07:35:31;;;;;;;0.77;0.40;;;10.30;99.90;;;-144.05;88.96;125687.94;5036127;28;20350;-81
2023/01/11 07:37:57;;;;;;;1.58;0.70;;;10.30;99.90;;;-144.05;88.27;125687.94;5036786;28;20029;-81
2023/01/11 07:40:22;;;;;;;1.90;0.90;;;10.30;99.90;;;-144.05;88.22;125687.94;5038298;28;20052;-80
2023/01/11 07:43:13;;;;;;;1.52;0.80;;;10.30;99.90;;;-144.05;87.43;125687.94;5035479;28;20187;-84
2023/01/11 07:45:44;;;;;;;2.35;1.38;;;10.30;99.90;;;-144.05;87.63;125687.94;5036457;28;20040;-81
2023/01/11 07:48:11;;;;;;;1.63;1.05;;;10.30;99.90;;;-144.05;89.01;125687.94;5036521;28;20496;-83
2023/01/11 07:50:39;;;;;;;1.15;1.00;;;10.40;99.90;;;-144.05;88.67;125687.94;5034563;28;20052;-83
2023/01/11 07:53:07;;;;;;;1.23;0.95;;;10.40;99.90;;;-144.05;88.95;125687.94;5036150;28;20452;-83
2023/01/11 07:55:34;;;;;;;1.27;0.80;;;10.40;99.90;;;-144.05;89.18;125687.94;5035718;28;20044;-81
2023/01/11 07:57:59;;;;;;;1.15;0.98;;;10.40;99.90;;;-144.05;89.41;125687.94;5035259;28;20108;-81
2023/01/11 08:00:25;;;;;;;1.20;0.77;;;10.40;99.90;;;-144.05;89.10;125687.94;5036241;28;20057;-81
2023/01/11 08:02:52;;;;;;;2.00;0.90;;;10.40;99.90;;;-144.05;88.83;125687.94;5034841;28;20026;-83
2023/01/11 08:05:20;;;;;;;2.97;1.13;;;10.40;99.90;;;-144.05;89.00;125687.94;5034453;28;20104;-80
2023/01/11 08:07:46;;;;;;;1.98;1.08;;;10.40;99.90;;;-144.05;88.73;125687.94;5034156;28;20036;-81
2023/01/11 08:10:13;;;;;;;1.10;0.82;;;10.40;99.90;;;-144.05;89.13;125687.94;5033257;28;20029;-81
2023/01/11 08:15:35;;;;;;;1.08;0.80;;;10.40;99.90;;;-144.05;88.70;125687.94;5038503;28;20044;-82
2023/01/11 08:18:04;;;;;;;1.00;0.90;;;10.40;99.90;;;-144.05;88.83;125687.94;5037122;28;20033;-81
2023/01/11 08:20:30;;;;;;;1.10;0.82;;;10.40;99.90;;;-144.05;89.05;125687.94;5039349;28;20049;-79
2023/01/11 08:22:56;;;;;;;3.30;1.17;;;10.40;99.90;;;-144.05;88.73;125687.94;5037142;28;20026;-81
2023/01/11 08:25:22;;;;;;;3.38;1.52;;;10.40;99.90;;;-144.05;89.42;125687.94;5036624;28;20056;-80
2023/01/11 08:27:48;;;;;;;2.70;1.45;;;10.50;99.90;;;-144.05;88.73;125687.94;5037377;28;20036;-81
2023/01/11 08:30:14;;;;;;;1.67;1.50;;;10.40;99.90;;;-144.05;88.91;125687.94;5038360;28;20021;-80
2023/01/11 08:32:40;;;;;;;2.28;1.90;;;10.50;99.90;;;-144.05;88.63;125687.94;5038422;28;20500;-82
2023/01/11 08:35:07;;;;;;;3.13;2.20;;;10.50;99.90;;;-144.05;87.99;125687.94;5038251;28;20076;-81
2023/01/11 08:37:33;;;;;;;3.85;2.15;;;10.50;99.90;;;-144.05;87.95;125687.94;5037110;28;20396;-82
2023/01/11 08:39:58;;;;;;;3.92;2.33;;;10.60;99.90;;;-144.05;87.97;125687.94;5036309;28;20422;-80
2023/01/11 08:42:25;;;;;;;4.22;2.47;;;10.60;99.90;;;-144.05;87.53;125687.94;5037141;28;20032;-80
2023/01/11 08:44:51;;;;;;;4.00;2.30;;;10.60;99.90;;;-144.05;87.89;125687.94;5038494;28;20112;-82
2023/01/11 08:47:17;;;;;;;4.85;2.58;;;10.60;99.90;;;-144.05;87.80;125687.94;5039101;28;20053;-83
2023/01/11 08:49:43;;;;;;;3.72;2.63;;;10.60;99.90;;;-144.05;87.47;125687.94;5039987;28;20088;-80
2023/01/11 08:52:13;;;;;;;6.07;2.75;;;10.60;99.90;;;-144.05;87.38;125687.94;5038620;28;20034;-81
2023/01/11 08:54:40;;;;;;;3.00;2.63;;;10.60;99.90;;;-144.05;87.03;125687.94;5039773;28;20028;-83
2023/01/11 08:57:07;;;;;;;3.58;3.03;;;10.70;99.90;;;-144.05;87.28;125687.94;5038207;28;20389;-82
2023/01/11 08:59:33;;;;;;;6.13;3.15;;;10.70;99.90;;;-144.05;87.25;125687.94;5038983;28;20033;-82
2023/01/11 09:01:59;;;;;;;4.18;2.65;;;10.70;99.90;;;-144.05;87.35;125687.94;5037748;28;20029;-83
2023/01/11 09:04:25;;;;;;;5.82;3.17;;;10.70;99.90;;;-144.05;87.62;125687.94;5043622;28;20032;-79
2023/01/11 09:06:52;;;;;;;6.70;3.90;;;10.60;99.90;;;-144.05;87.90;125687.94;5053441;28;20029;-82
2023/01/11 09:09:18;;;;;;;7.05;4.13;;;10.70;99.90;;;-144.05;88.39;125687.94;5054497;28;20029;-81
2023/01/11 09:11:53;;;;;;;7.60;4.30;;;10.60;99.90;;;-144.05;87.93;125687.94;5049912;28;20040;-82
2023/01/11 09:14:21;;;;;;;4.67;3.80;;;10.70;99.90;;;-144.05;87.59;125687.94;5037789;28;20060;-82
2023/01/11 09:16:47;;;;;;;8.00;5.15;;;10.60;99.90;;;-144.05;87.17;125687.94;5037098;28;20779;-80
2023/01/11 09:19:13;;;;;;;8.25;4.78;;;10.70;99.90;;;-144.05;86.65;125687.94;5037520;28;20049;-82
2023/01/11 09:21:39;;;;;;;6.68;4.60;;;10.70;99.90;;;-144.05;86.95;125687.94;5037285;28;20033;-79
2023/01/11 09:24:06;;;;;;;9.40;5.53;;;10.70;99.90;;;-144.05;86.73;125687.94;5037183;28;20087;-82
2023/01/11 09:26:32;;;;;;;8.05;4.57;;;10.60;99.90;;;-144.05;86.10;125687.94;5037041;28;20052;-80
2023/01/11 09:28:57;;;;;;;7.40;4.65;;;10.60;99.90;;;-144.05;86.32;125687.94;5038115;28;20433;-79
2023/01/11 09:31:24;;;;;;;10.07;3.83;;;10.60;99.90;;;-144.05;85.15;125687.94;5037430;28;20440;-81
2023/01/11 09:33:50;;;;;;;11.75;4.13;;;10.60;99.90;;;-144.05;84.12;125687.94;5037124;28;20022;-79
2023/01/11 09:36:20;;;;;;;11.50;3.83;;;10.50;99.90;;;-144.05;83.28;125687.94;5036032;28;20030;-82
2023/01/11 09:38:49;;;;;;;11.25;2.38;;;10.50;99.90;;;-144.05;82.46;125687.94;5037074;28;20380;-80
2023/01/11 09:42:06;;;;;;;13.38;3.20;;;10.40;99.90;;;-144.05;81.76;125687.94;5036990;28;20107;-81
2023/01/11 09:44:50;;;;;;;9.18;3.13;;;10.30;99.90;;;-144.05;81.57;125687.94;5037018;28;20026;-80
2023/01/11 09:47:51;;;;;;;14.05;3.28;;;10.30;99.90;;;-144.05;82.04;125687.94;5036434;28;20029;-81
2023/01/11 09:50:39;;;;;;;16.17;3.47;;;10.30;99.90;;;-144.05;81.53;125687.94;5036514;28;20029;-82
2023/01/11 09:53:14;;;;;;;8.25;2.70;;;10.20;99.90;;;-144.05;81.44;125687.94;5036573;28;20120;-82
2023/01/11 09:55:49;;;;;;;19.73;3.30;;;10.20;99.90;;;-144.05;81.50;125687.94;5045236;22;20034;-82
2023/01/11 09:59:17;;;;;;;13.85;3.38;;;10.20;99.90;;;-144.05;80.68;125687.94;5052586;28;20041;-83
2023/01/11 10:02:36;;;;;;;17.05;4.53;;;10.20;99.90;;;-144.05;81.14;125687.94;5037143;28;20025;-81
2023/01/11 10:05:48;;;;;;;19.90;4.97;;;10.10;99.90;;;-144.05;81.11;125687.94;5036828;28;20029;-84
2023/01/11 10:08:58;;;;;;;16.33;3.88;;;10.10;99.90;;;-144.05;81.08;125687.94;5033333;28;20523;-84
2023/01/11 10:12:10;;;;;;;11.68;3.20;;;10.10;99.90;;;-144.05;80.91;125687.94;5037545;28;20033;-85
2023/01/11 10:14:56;;;;;;;19.02;4.07;;;10.00;99.90;;;-144.05;80.28;125687.94;5035361;28;20025;-85
2023/01/11 10:17:51;;;;;;;13.82;4.25;;;10.00;99.90;;;-144.05;79.95;125687.94;5036893;28;20047;-86
2023/01/11 10:20:42;;;;;;;14.60;3.20;;;10.00;99.90;;;-144.05;79.48;125687.94;5052094;28;20038;-83
2023/01/11 10:23:36;;;;;;;15.02;3.88;;;10.00;99.90;;;-144.05;79.23;125687.94;5036410;28;20033;-83
2023/01/11 10:26:11;;;;;;;10.25;3.70;;;10.00;99.90;;;-144.05;78.98;125687.94;5035342;28;20071;-84
2023/01/11 10:29:07;;;;;;;20.50;3.97;;;10.00;99.90;;;-144.05;79.43;125687.94;5034210;28;20057;-81
2023/01/11 10:34:23;;;;;;;20.30;6.47;;;10.00;99.90;;;-144.05;79.41;125687.94;5035524;28;20029;-82
2023/01/11 10:40:30;;;;;;;13.90;3.50;;;10.00;99.90;;;-144.05;79.70;125687.94;5035287;28;20401;-81
2023/01/11 10:43:19;;;;;;;20.52;4.78;;;10.00;99.90;;;-144.05;79.88;125687.94;5037277;28;20404;-82
2023/01/11 10:45:59;;;;;;;22.63;4.18;;;10.00;99.90;;;-144.05;79.91;125687.94;5035434;28;20164;-85
2023/01/11 10:48:43;;;;;;;24.38;6.40;;;10.00;99.90;;;-144.05;79.75;125687.94;5036919;28;20433;-83
2023/01/11 10:51:30;;;;;;;23.10;6.15;;;10.00;99.90;;;-144.05;79.53;125687.94;5052854;28;20056;-83